Hauptseite
METAR-TAF:

METAR-TAF

Flughäfen :

Flughafen Stuttgart

Stuttgart, Deutschland

Breite: 48-41N, Länge: 009-13E, Höhe: 396 m

Beobachtung

Neuester Wetterbericht von vor 47 Minuten, um 17:50 UTC
Wind 6 kt aus Nordwest, variierte zwischen West/Nordwest und Nord
Temperatur 18°C
Luftfeuchtigkeit 83%
Luftdruck 1019 hPa
Sichtweite 10 km oder mehr
Leicht bewölkt in der Höhe von 4300 ft

METAR: EDDS 231750Z AUTO 31006KT 290V010 9999 FEW043 18/15 Q1019 NOSIG

Zeit: 20:37 (18:37 UTC)

Prognose

Neuester Wetterbericht von vor 1 Stunde und 37 Minuten, um 17:00 UTC
Gültige Prognose vom 23 um 18 UTC bis 24 um 18 UTC
Wind 6 kt aus Nord/Nordost
Sichtweite 10 km oder mehr
Aufgelockert bewölkt in der Höhe von 3000 ft

TAF: EDDS 231700Z 2318/2418 03006KT 9999 SCT030

Wetterbeobachtungen und Prognosen von mehr als 4000 Flughäfen (METAR und TAF Bericht).

Die verfügbaren Stationen werden durch gelbe und rote Markierungen auf der Karte dargestellt.

Führen Sie die Maus auf sie, um den Namen der Station zu sehen.

Darauf klicken, um die Beobachtung von Wetterbeobachtungen und Prognosen zu sehen.

Um die Karte zu ändern : klicken Sie auf den grünen Tasten mit einem schwarzen Kreuz Zum Vergrößern, auf den grünen Button mit einem Gedankenstrich zu verkleinern, oder auf die grünen Pfeile für benachbarte Karten.


METAR-TAF: